^^
Marion, Virginia Banner
 

U.S. Satellite Loop
U.S. National Satellite Loop
View Satellite

Live Doppler Radar
Blacksburg, VA Nexrad Doppler Radar
View Radar

NW Atlantic Satellite
U.S. National Satellite Loop
View Satellite

US WX Conditions
US Weather Conditions
View Wx Conditions


USA Weather Finder


 

Adwolf, VA. Station Historical Data
[ Providing Data Since 6/07/2007 ]
Station Historical Data
Daily Summary for April 22, 2017 Units:  Both    English   Metric
« Previous Day
Next Day »
Daily Weekly Monthly Yearly Custom
  High: Low: Average:
Temperature: TemperatureF °F /  -17.8 °C 54.8 °F /  12.7 °C 59.9 °F /  15.5 °C
Dew Point: DewpointF °F /  -17.8 °C 53.6 °F /  12 °C 57.6 °F /  14.2 °C
Humidity: Humidity% 83% 92%
Wind Speed: WindSpeedMPHmph /  0km/h - 2.2mph /  3.5km/h
Wind Gust: WindSpeedGustMPHmph /  0km/h - -
Wind- - SSW
Pressure: PressureIn in /  0 hPa 29.83 in /  1010 hPa -
Precipitation: 0.73 in /  18.54 mm    
Historical Graphs
 
 
Tabular Data for April 22, 2017
Time Temperature Dew Point Pressure Wind Wind Speed Wind Gust Humidity Rainfall Rate (Hourly) solar Conditions
TemperatureF °F /  -17.8 °C DewpointF °F /  -17.8 °C PressureInin /  0hPa Calm     Humidity% HourlyPrecipInin /  0mm SoftwareType W/m2 Conditions
00:01 61.1 °F /  16.2 °C 59.9 °F /  15.5 °C 29.92in /  1013.1hPa SSW 1.2mph /  1.9km/h   96% 0.00in /  0mm WeatherDisplay:10.37 W/m2 RA
00:06 61.1 °F /  16.2 °C 59.9 °F /  15.5 °C 29.92in /  1013.1hPa SSW 1.2mph /  1.9km/h 1.2mph /  1.9km/h 96% 0.00in /  0mm WeatherDisplay:10.37 W/m2 RA
00:11 61.1 °F /  16.2 °C 59.9 °F /  15.5 °C 29.92in /  1013.1hPa Calm     96% 0.00in /  0mm WeatherDisplay:10.37 W/m2 SCT
00:16 61.1 °F /  16.2 °C 59.9 °F /  15.5 °C 29.92in /  1013.1hPa Calm     96% 0.00in /  0mm WeatherDisplay:10.37 W/m2 SCT
00:21 61.1 °F /  16.2 °C 59.9 °F /  15.5 °C 29.92in /  1013.1hPa Calm   0.1mph /  0.2km/h 96% 0.00in /  0mm WeatherDisplay:10.37 W/m2 SCT
00:26 61.2 °F /  16.2 °C 60.0 °F /  15.6 °C 29.92in /  1013.1hPa SSW 1.2mph /  1.9km/h 1.2mph /  1.9km/h 96% 0.00in /  0mm WeatherDisplay:10.37 W/m2 OVC
00:31 61.2 °F /  16.2 °C 60.0 °F /  15.6 °C 29.92in /  1013.1hPa SSW 1.0mph /  1.6km/h 1.0mph /  1.6km/h 96% 0.00in /  0mm WeatherDisplay:10.37 W/m2 OVC
00:36 61.2 °F /  16.2 °C 60.0 °F /  15.6 °C 29.92in /  1013.1hPa SSW 1.2mph /  1.9km/h 1.2mph /  1.9km/h 96% 0.00in /  0mm WeatherDisplay:10.37 W/m2 OVC
00:41 61.2 °F /  16.2 °C 60.0 °F /  15.6 °C 29.92in /  1013.1hPa SSW 1.2mph /  1.9km/h 1.2mph /  1.9km/h 96% 0.01in /  0.25mm WeatherDisplay:10.37 W/m2 RA
00:46 61.2 °F /  16.2 °C 60.0 °F /  15.6 °C 29.92in /  1013.1hPa SSW 2.3mph /  3.7km/h 2.3mph /  3.7km/h 96% 0.01in /  0.25mm WeatherDisplay:10.37 W/m2 RA
00:51 61.1 °F /  16.2 °C 59.9 °F /  15.5 °C 29.91in /  1012.8hPa SSW 1.2mph /  1.9km/h   96% 0.01in /  0.25mm WeatherDisplay:10.37 W/m2 OVC
00:56 61.0 °F /  16.1 °C 59.8 °F /  15.4 °C 29.92in /  1013.1hPa SSW 1.2mph /  1.9km/h   96% 0.02in /  0.51mm WeatherDisplay:10.37 W/m2 RA
01:01 61.0 °F /  16.1 °C 60.1 °F /  15.6 °C 29.91in /  1012.8hPa Calm   0.2mph /  0.3km/h 97% 0.02in /  0.51mm WeatherDisplay:10.37 W/m2 RA
01:06 61.0 °F /  16.1 °C 60.1 °F /  15.6 °C 29.92in /  1013.1hPa SSW 2.3mph /  3.7km/h 2.3mph /  3.7km/h 97% 0.02in /  0.51mm WeatherDisplay:10.37 W/m2 OVC
01:11 61.2 °F /  16.2 °C 60.3 °F /  15.7 °C 29.92in /  1013.1hPa SW 2.3mph /  3.7km/h 2.3mph /  3.7km/h 97% 0.03in /  0.76mm WeatherDisplay:10.37 W/m2 RA
01:16 61.2 °F /  16.2 °C 60.3 °F /  15.7 °C 29.92in /  1013.1hPa SW 2.3mph /  3.7km/h 2.3mph /  3.7km/h 97% 0.04in /  1.02mm WeatherDisplay:10.37 W/m2 RA
01:21 61.1 °F /  16.2 °C 60.2 °F /  15.7 °C 29.92in /  1013.1hPa SW 2.3mph /  3.7km/h 2.3mph /  3.7km/h 97% 0.06in /  1.52mm WeatherDisplay:10.37 W/m2 RA
01:26 61.0 °F /  16.1 °C 60.1 °F /  15.6 °C 29.92in /  1013.1hPa SW 2.3mph /  3.7km/h 2.3mph /  3.7km/h 97% 0.07in /  1.78mm WeatherDisplay:10.37 W/m2 RA
01:31 61.0 °F /  16.1 °C 60.1 °F /  15.6 °C 29.92in /  1013.1hPa SW 1.2mph /  1.9km/h 1.2mph /  1.9km/h 97% 0.08in /  2.03mm WeatherDisplay:10.37 W/m2 RA
01:36 61.1 °F /  16.2 °C 60.2 °F /  15.7 °C 29.92in /  1013.1hPa SW 2.3mph /  3.7km/h 2.3mph /  3.7km/h 97% 0.09in /  2.29mm WeatherDisplay:10.37 W/m2 RA
01:41 61.2 °F /  16.2 °C 60.3 °F /  15.7 °C 29.92in /  1013.1hPa SW 1.2mph /  1.9km/h 1.2mph /  1.9km/h 97% 0.10in /  2.54mm WeatherDisplay:10.37 W/m2 +RA
01:46 61.2 °F /  16.2 °C 60.3 °F /  15.7 °C 29.92in /  1013.1hPa SW 1.2mph /  1.9km/h 1.2mph /  1.9km/h 97% 0.11in /  2.79mm WeatherDisplay:10.37 W/m2 +RA
01:51 61.2 °F /  16.2 °C 60.3 °F /  15.7 °C 29.92in /  1013.1hPa SW 2.0mph /  3.2km/h 2.0mph /  3.2km/h 97% 0.13in /  3.3mm WeatherDisplay:10.37 W/m2 +RA
01:56 61.3 °F /  16.3 °C 60.4 °F /  15.8 °C 29.92in /  1013.1hPa SW 1.2mph /  1.9km/h 1.2mph /  1.9km/h 97% 0.13in /  3.3mm WeatherDisplay:10.37 W/m2 +RA
02:01 61.2 °F /  16.2 °C 60.3 °F /  15.7 °C 29.91in /  1012.8hPa SW 2.3mph /  3.7km/h 2.3mph /  3.7km/h 97% 0.15in /  3.81mm WeatherDisplay:10.37 W/m2 +RA
02:06 61.2 °F /  16.2 °C 60.3 °F /  15.7 °C 29.91in /  1012.8hPa South 2.3mph /  3.7km/h 2.3mph /  3.7km/h 97% 0.16in /  4.06mm WeatherDisplay:10.37 W/m2 +RA
02:11 61.1 °F /  16.2 °C 60.2 °F /  15.7 °C 29.91in /  1012.8hPa South 1.2mph /  1.9km/h 1.2mph /  1.9km/h 97% 0.16in /  4.06mm WeatherDisplay:10.37 W/m2 +RA
02:16 61.1 °F /  16.2 °C 60.2 °F /  15.7 °C 29.90in /  1012.4hPa South 3.5mph /  5.6km/h 3.5mph /  5.6km/h 97% 0.16in /  4.06mm WeatherDisplay:10.37 W/m2 +RA
02:21 61.0 °F /  16.1 °C 60.1 °F /  15.6 °C 29.90in /  1012.4hPa South 1.2mph /  1.9km/h 1.2mph /  1.9km/h 97% 0.15in /  3.81mm WeatherDisplay:10.37 W/m2 +RA
02:26 61.0 °F /  16.1 °C 60.1 °F /  15.6 °C 29.90in /  1012.4hPa South 1.2mph /  1.9km/h 1.2mph /  1.9km/h 97% 0.14in /  3.56mm WeatherDisplay:10.37 W/m2 RA
02:31 60.9 °F /  16.1 °C 60.0 °F /  15.6 °C 29.89in /  1012.1hPa South 1.2mph /  1.9km/h 1.2mph /  1.9km/h 97% 0.13in /  3.3mm WeatherDisplay:10.37 W/m2 OVC
02:36 60.9 °F /  16.1 °C 60.0 °F /  15.6 °C 29.89in /  1012.1hPa Calm     97% 0.11in /  2.79mm WeatherDisplay:10.37 W/m2 OVC
02:41 60.9 °F /  16.1 °C 60.0 °F /  15.6 °C 29.89in /  1012.1hPa South 1.2mph /  1.9km/h   97% 0.10in /  2.54mm WeatherDisplay:10.37 W/m2 -RA
02:51 60.8 °F /  16 °C 59.9 °F /  15.5 °C 29.88in /  1011.7hPa Calm     97% 0.08in /  2.03mm WeatherDisplay:10.37 W/m2 -RA
02:56 60.8 °F /  16 °C 59.9 °F /  15.5 °C 29.88in /  1011.7hPa South 1.2mph /  1.9km/h 1.2mph /  1.9km/h 97% 0.06in /  1.52mm WeatherDisplay:10.37 W/m2 -RA
03:01 60.8 °F /  16 °C 59.9 °F /  15.5 °C 29.88in /  1011.7hPa Calm     97% 0.05in /  1.27mm WeatherDisplay:10.37 W/m2 -RA
03:06 60.8 °F /  16 °C 59.9 °F /  15.5 °C 29.88in /  1011.7hPa South 1.2mph /  1.9km/h   97% 0.04in /  1.02mm WeatherDisplay:10.37 W/m2 -RA
03:11 60.7 °F /  15.9 °C 59.8 °F /  15.4 °C 29.88in /  1011.7hPa Calm     97% 0.03in /  0.76mm WeatherDisplay:10.37 W/m2 -RA
03:16 60.7 °F /  15.9 °C 59.8 °F /  15.4 °C 29.88in /  1011.7hPa Calm     97% 0.02in /  0.51mm WeatherDisplay:10.37 W/m2 -RA
03:21 60.7 °F /  15.9 °C 59.8 °F /  15.4 °C 29.88in /  1011.7hPa Calm     97% 0.01in /  0.25mm WeatherDisplay:10.37 W/m2 OVC
03:26 60.7 °F /  15.9 °C 59.8 °F /  15.4 °C 29.88in /  1011.7hPa Calm     97% 0.01in /  0.25mm WeatherDisplay:10.37 W/m2 OVC
03:31 60.8 °F /  16 °C 59.9 °F /  15.5 °C 29.88in /  1011.7hPa South 1.2mph /  1.9km/h 1.2mph /  1.9km/h 97% 0.01in /  0.25mm WeatherDisplay:10.37 W/m2 OVC
03:36 60.8 °F /  16 °C 59.9 °F /  15.5 °C 29.88in /  1011.7hPa South 1.2mph /  1.9km/h 1.2mph /  1.9km/h 97% 0.01in /  0.25mm WeatherDisplay:10.37 W/m2 OVC
03:41 60.8 °F /  16 °C 59.9 °F /  15.5 °C 29.88in /  1011.7hPa South 1.2mph /  1.9km/h   97% 0.02in /  0.51mm WeatherDisplay:10.37 W/m2 RA
03:46 60.7 °F /  15.9 °C 59.8 °F /  15.4 °C 29.87in /  1011.4hPa Calm     97% 0.01in /  0.25mm WeatherDisplay:10.37 W/m2 -RA
03:51 60.7 °F /  15.9 °C 59.8 °F /  15.4 °C 29.87in /  1011.4hPa South 1.2mph /  1.9km/h 1.2mph /  1.9km/h 97% 0.01in /  0.25mm WeatherDisplay:10.37 W/m2 -RA
03:56 60.6 °F /  15.9 °C 59.7 °F /  15.4 °C 29.86in /  1011.1hPa South 1.2mph /  1.9km/h 1.2mph /  1.9km/h 97% 0.01in /  0.25mm WeatherDisplay:10.37 W/m2 -RA
04:01 60.6 °F /  15.9 °C 59.7 °F /  15.4 °C 29.86in /  1011.1hPa Calm     97% 0.01in /  0.25mm WeatherDisplay:10.37 W/m2 -RA
04:06 60.5 °F /  15.8 °C 59.6 °F /  15.3 °C 29.86in /  1011.1hPa Calm     97% 0.01in /  0.25mm WeatherDisplay:10.37 W/m2 OVC
04:11 60.4 °F /  15.8 °C 59.5 °F /  15.3 °C 29.85in /  1010.7hPa Calm     97% 0.01in /  0.25mm WeatherDisplay:10.37 W/m2 OVC
04:16 60.4 °F /  15.8 °C 59.5 °F /  15.3 °C 29.85in /  1010.7hPa Calm     97% 0.01in /  0.25mm WeatherDisplay:10.37 W/m2 OVC
04:21 60.4 °F /  15.8 °C 59.5 °F /  15.3 °C 29.85in /  1010.7hPa Calm     97% 0.01in /  0.25mm WeatherDisplay:10.37 W/m2 OVC
04:26 60.3 °F /  15.7 °C 59.4 °F /  15.2 °C 29.85in /  1010.7hPa South 1.2mph /  1.9km/h   97% 0.01in /  0.25mm WeatherDisplay:10.37 W/m2 OVC
04:31 60.3 °F /  15.7 °C 59.4 °F /  15.2 °C 29.84in /  1010.4hPa Calm     97% 0.01in /  0.25mm WeatherDisplay:10.37 W/m2 OVC
04:36 60.2 °F /  15.7 °C 59.3 °F /  15.2 °C 29.84in /  1010.4hPa Calm     97% 0.01in /  0.25mm WeatherDisplay:10.37 W/m2 OVC
04:41 60.2 °F /  15.7 °C 59.3 °F /  15.2 °C 29.84in /  1010.4hPa South 1.2mph /  1.9km/h   97% 0.00in /  0mm WeatherDisplay:10.37 W/m2 -RA
04:46 60.2 °F /  15.7 °C 59.3 °F /  15.2 °C 29.85in /  1010.7hPa Calm     97% 0.00in /  0mm WeatherDisplay:10.37 W/m2 -RA
04:51 60.1 °F /  15.6 °C 59.2 °F /  15.1 °C 29.84in /  1010.4hPa Calm     97% 0.00in /  0mm WeatherDisplay:10.37 W/m2 -RA
04:56 60.1 °F /  15.6 °C 59.2 °F /  15.1 °C 29.84in /  1010.4hPa South 1.2mph /  1.9km/h 1.2mph /  1.9km/h 97% 0.01in /  0.25mm WeatherDisplay:10.37 W/m2 -RA
05:01 60.0 °F /  15.6 °C 59.1 °F /  15.1 °C 29.84in /  1010.4hPa Calm     97% 0.01in /  0.25mm WeatherDisplay:10.37 W/m2 RA
05:06 60.0 °F /  15.6 °C 59.1 °F /  15.1 °C 29.84in /  1010.4hPa South 1.0mph /  1.6km/h   97% 0.01in /  0.25mm WeatherDisplay:10.37 W/m2 BKN
05:11 60.0 °F /  15.6 °C 59.1 °F /  15.1 °C 29.84in /  1010.4hPa Calm     97% 0.01in /  0.25mm WeatherDisplay:10.37 W/m2 BKN
05:16 59.9 °F /  15.5 °C 59.0 °F /  15 °C 29.84in /  1010.4hPa Calm     97% 0.01in /  0.25mm WeatherDisplay:10.37 W/m2 BKN
05:21 60.0 °F /  15.6 °C 59.1 °F /  15.1 °C 29.83in /  1010hPa Calm     97% 0.01in /  0.25mm WeatherDisplay:10.37 W/m2 -RA
05:26 60.0 °F /  15.6 °C 59.1 °F /  15.1 °C 29.84in /  1010.4hPa Calm     97% 0.02in /  0.51mm WeatherDisplay:10.37 W/m2 -RA
14:22 62.7 °F /  17.1 °C 59.4 °F /  15.2 °C 29.87in /  1011.4hPa SSW 3.5mph /  5.6km/h 3.5mph /  5.6km/h 89% 0.00in /  0mm WeatherDisplay:10.37 W/m2 -RA
14:27 62.7 °F /  17.1 °C 59.7 °F /  15.4 °C 29.86in /  1011.1hPa SSW 1.2mph /  1.9km/h 1.2mph /  1.9km/h 90% 0.00in /  0mm WeatherDisplay:10.37 W/m2 -RA
14:32 62.9 °F /  17.2 °C 59.6 °F /  15.3 °C 29.87in /  1011.4hPa SSW 2.3mph /  3.7km/h 2.3mph /  3.7km/h 89% 0.00in /  0mm WeatherDisplay:10.37 W/m2 OVC
14:37 62.9 °F /  17.2 °C 59.6 °F /  15.3 °C 29.87in /  1011.4hPa SSW 3.5mph /  5.6km/h 3.5mph /  5.6km/h 89% 0.01in /  0.25mm WeatherDisplay:10.37 W/m2 RA
14:42 63.1 °F /  17.3 °C 60.1 °F /  15.6 °C 29.87in /  1011.4hPa South 3.5mph /  5.6km/h 3.5mph /  5.6km/h 90% 0.01in /  0.25mm WeatherDisplay:10.37 W/m2 RA
14:47 63.2 °F /  17.3 °C 59.5 °F /  15.3 °C 29.87in /  1011.4hPa WSW 4.6mph /  7.4km/h 4.6mph /  7.4km/h 88% 0.01in /  0.25mm WeatherDisplay:10.37 W/m2 OVC
14:52 63.1 °F /  17.3 °C 59.8 °F /  15.4 °C 29.86in /  1011.1hPa SSW 2.3mph /  3.7km/h 2.3mph /  3.7km/h 89% 0.01in /  0.25mm WeatherDisplay:10.37 W/m2 OVC
14:57 63.0 °F /  17.2 °C 59.7 °F /  15.4 °C 29.86in /  1011.1hPa West 3.5mph /  5.6km/h 3.5mph /  5.6km/h 89% 0.01in /  0.25mm WeatherDisplay:10.37 W/m2 OVC
15:02 63.0 °F /  17.2 °C 60.0 °F /  15.6 °C 29.86in /  1011.1hPa SW 2.3mph /  3.7km/h 2.3mph /  3.7km/h 90% 0.01in /  0.25mm WeatherDisplay:10.37 W/m2 -RA
15:07 63.2 °F /  17.3 °C 60.5 °F /  15.8 °C 29.86in /  1011.1hPa NW 1.2mph /  1.9km/h 1.2mph /  1.9km/h 91% 0.01in /  0.25mm WeatherDisplay:10.37 W/m2 -RA
15:12 63.4 °F /  17.4 °C 60.7 °F /  15.9 °C 29.86in /  1011.1hPa West 2.3mph /  3.7km/h 2.3mph /  3.7km/h 91% 0.01in /  0.25mm WeatherDisplay:10.37 W/m2 -RA
15:17 63.3 °F /  17.4 °C 59.6 °F /  15.3 °C 29.85in /  1010.7hPa West 3.5mph /  5.6km/h 3.5mph /  5.6km/h 88% 0.01in /  0.25mm WeatherDisplay:10.37 W/m2 -RA
15:22 63.1 °F /  17.3 °C 59.8 °F /  15.4 °C 29.85in /  1010.7hPa NW 3.0mph /  4.8km/h 3.0mph /  4.8km/h 89% 0.01in /  0.25mm WeatherDisplay:10.37 W/m2 -RA
15:27 63.0 °F /  17.2 °C 59.3 °F /  15.2 °C 29.85in /  1010.7hPa West 3.5mph /  5.6km/h 3.5mph /  5.6km/h 88% 0.01in /  0.25mm WeatherDisplay:10.37 W/m2 -RA
15:32 62.9 °F /  17.2 °C 59.3 °F /  15.2 °C 29.85in /  1010.7hPa West 2.3mph /  3.7km/h 2.3mph /  3.7km/h 88% 0.01in /  0.25mm WeatherDisplay:10.37 W/m2 -RA
15:37 62.9 °F /  17.2 °C 59.3 °F /  15.2 °C 29.86in /  1011.1hPa West 3.5mph /  5.6km/h 3.5mph /  5.6km/h 88% 0.00in /  0mm WeatherDisplay:10.37 W/m2 -RA
15:42 62.9 °F /  17.2 °C 59.3 °F /  15.2 °C 29.86in /  1011.1hPa SSW 3.5mph /  5.6km/h 3.5mph /  5.6km/h 88% 0.00in /  0mm WeatherDisplay:10.37 W/m2 OVC
15:47 62.9 °F /  17.2 °C 58.9 °F /  14.9 °C 29.86in /  1011.1hPa SSW 4.6mph /  7.4km/h 4.6mph /  7.4km/h 87% 0.00in /  0mm WeatherDisplay:10.37 W/m2 OVC
15:52 62.9 °F /  17.2 °C 58.9 °F /  14.9 °C 29.85in /  1010.7hPa WSW 3.5mph /  5.6km/h 3.5mph /  5.6km/h 87% 0.00in /  0mm WeatherDisplay:10.37 W/m2 OVC
15:57 62.8 °F /  17.1 °C 58.8 °F /  14.9 °C 29.85in /  1010.7hPa WSW 3.5mph /  5.6km/h 3.5mph /  5.6km/h 87% 0.00in /  0mm WeatherDisplay:10.37 W/m2 OVC
16:02 62.9 °F /  17.2 °C 59.3 °F /  15.2 °C 29.85in /  1010.7hPa West 3.5mph /  5.6km/h 3.5mph /  5.6km/h 88% 0.00in /  0mm WeatherDisplay:10.37 W/m2 OVC
16:07 63.0 °F /  17.2 °C 59.3 °F /  15.2 °C 29.85in /  1010.7hPa West 3.5mph /  5.6km/h 3.5mph /  5.6km/h 88% 0.00in /  0mm WeatherDisplay:10.37 W/m2 OVC
16:12 63.0 °F /  17.2 °C 58.7 °F /  14.8 °C 29.84in /  1010.4hPa SW 8.1mph /  13km/h 8.1mph /  13km/h 86% 0.00in /  0mm WeatherDisplay:10.37 W/m2 OVC
16:17 63.2 °F /  17.3 °C 59.2 °F /  15.1 °C 29.84in /  1010.4hPa WSW 3.5mph /  5.6km/h 3.5mph /  5.6km/h 87% 0.00in /  0mm WeatherDisplay:10.37 W/m2 OVC
16:22 63.5 °F /  17.5 °C 59.5 °F /  15.3 °C 29.84in /  1010.4hPa SW 3.5mph /  5.6km/h 3.5mph /  5.6km/h 87% 0.00in /  0mm WeatherDisplay:10.37 W/m2 OVC
16:27 63.8 °F /  17.7 °C 59.5 °F /  15.3 °C 29.84in /  1010.4hPa SW 5.0mph /  8km/h 5.0mph /  8km/h 86% 0.00in /  0mm WeatherDisplay:10.37 W/m2 OVC
16:32 63.9 °F /  17.7 °C 59.6 °F /  15.3 °C 29.84in /  1010.4hPa SSW 5.8mph /  9.3km/h 5.8mph /  9.3km/h 86% 0.00in /  0mm WeatherDisplay:10.37 W/m2 OVC
16:37 64.0 °F /  17.8 °C 59.7 °F /  15.4 °C 29.84in /  1010.4hPa SSW 6.9mph /  11.1km/h 6.9mph /  11.1km/h 86% 0.00in /  0mm WeatherDisplay:10.37 W/m2 OVC
16:42 64.2 °F /  17.9 °C 59.9 °F /  15.5 °C 29.84in /  1010.4hPa WSW 3.0mph /  4.8km/h 3.0mph /  4.8km/h 86% 0.00in /  0mm WeatherDisplay:10.37 W/m2 OVC
16:47 64.1 °F /  17.8 °C 59.5 °F /  15.3 °C 29.84in /  1010.4hPa SW 4.6mph /  7.4km/h 4.6mph /  7.4km/h 85% 0.00in /  0mm WeatherDisplay:10.37 W/m2 OVC
16:52 64.1 °F /  17.8 °C 59.8 °F /  15.4 °C 29.84in /  1010.4hPa SW 4.0mph /  6.4km/h 4.0mph /  6.4km/h 86% 0.00in /  0mm WeatherDisplay:10.37 W/m2 OVC
16:57 64.1 °F /  17.8 °C 59.5 °F /  15.3 °C 29.84in /  1010.4hPa SW 9.2mph /  14.8km/h 9.2mph /  14.8km/h 85% 0.00in /  0mm WeatherDisplay:10.37 W/m2 OVC
17:02 64.0 °F /  17.8 °C 59.4 °F /  15.2 °C 29.84in /  1010.4hPa West 4.6mph /  7.4km/h 4.6mph /  7.4km/h 85% 0.00in /  0mm WeatherDisplay:10.37 W/m2 OVC
17:07 64.3 °F /  17.9 °C 59.7 °F /  15.4 °C 29.84in /  1010.4hPa West 5.8mph /  9.3km/h 5.8mph /  9.3km/h 85% 0.00in /  0mm WeatherDisplay:10.37 W/m2 OVC
17:12 64.5 °F /  18.1 °C 59.5 °F /  15.3 °C 29.84in /  1010.4hPa South 3.5mph /  5.6km/h 3.5mph /  5.6km/h 84% 0.00in /  0mm WeatherDisplay:10.37 W/m2 OVC
17:17 64.7 °F /  18.2 °C 59.7 °F /  15.4 °C 29.84in /  1010.4hPa WSW 3.0mph /  4.8km/h 3.0mph /  4.8km/h 84% 0.00in /  0mm WeatherDisplay:10.37 W/m2 OVC
17:22 64.7 °F /  18.2 °C 59.4 °F /  15.2 °C 29.84in /  1010.4hPa WSW 4.6mph /  7.4km/h 4.6mph /  7.4km/h 83% 0.00in /  0mm WeatherDisplay:10.37 W/m2 OVC
17:27 64.5 °F /  18.1 °C 59.5 °F /  15.3 °C 29.84in /  1010.4hPa SW 3.5mph /  5.6km/h 3.5mph /  5.6km/h 84% 0.00in /  0mm WeatherDisplay:10.37 W/m2 OVC
17:32 64.3 °F /  17.9 °C 59.0 °F /  15 °C 29.84in /  1010.4hPa West 3.5mph /  5.6km/h 3.5mph /  5.6km/h 83% 0.00in /  0mm WeatherDisplay:10.37 W/m2 OVC
17:37 64.1 °F /  17.8 °C 58.8 °F /  14.9 °C 29.85in /  1010.7hPa SW 5.8mph /  9.3km/h 5.8mph /  9.3km/h 83% 0.00in /  0mm WeatherDisplay:10.37 W/m2 OVC
17:42 64.0 °F /  17.8 °C 59.0 °F /  15 °C 29.85in /  1010.7hPa SW 2.3mph /  3.7km/h 2.3mph /  3.7km/h 84% 0.00in /  0mm WeatherDisplay:10.37 W/m2 OVC
17:47 63.9 °F /  17.7 °C 58.9 °F /  14.9 °C 29.85in /  1010.7hPa North 4.6mph /  7.4km/h 4.6mph /  7.4km/h 84% 0.00in /  0mm WeatherDisplay:10.37 W/m2 OVC
17:48 63.8 °F /  17.7 °C 59.2 °F /  15.1 °C 29.85in /  1010.7hPa North 3.5mph /  5.6km/h 3.5mph /  5.6km/h 85% 0.00in /  0mm WeatherDisplay:10.37 W/m2 OVC
17:53 63.5 °F /  17.5 °C 58.9 °F /  14.9 °C 29.85in /  1010.7hPa NNE 3.5mph /  5.6km/h 3.5mph /  5.6km/h 85% 0.00in /  0mm WeatherDisplay:10.37 W/m2 OVC
17:58 63.2 °F /  17.3 °C 58.6 °F /  14.8 °C 29.85in /  1010.7hPa North 3.5mph /  5.6km/h 3.5mph /  5.6km/h 85% 0.00in /  0mm WeatherDisplay:10.37 W/m2 OVC
18:03 63.0 °F /  17.2 °C 58.7 °F /  14.8 °C 29.85in /  1010.7hPa NNE 1.2mph /  1.9km/h 1.2mph /  1.9km/h 86% 0.00in /  0mm WeatherDisplay:10.37 W/m2 OVC
18:08 62.8 °F /  17.1 °C 58.5 °F /  14.7 °C 29.85in /  1010.7hPa NNE 3.5mph /  5.6km/h 3.5mph /  5.6km/h 86% 0.00in /  0mm WeatherDisplay:10.37 W/m2 OVC
18:13 62.8 °F /  17.1 °C 58.8 °F /  14.9 °C 29.85in /  1010.7hPa NNE 3.5mph /  5.6km/h 3.5mph /  5.6km/h 87% 0.00in /  0mm WeatherDisplay:10.37 W/m2 OVC
18:18 62.7 °F /  17.1 °C 58.7 °F /  14.8 °C 29.85in /  1010.7hPa NNE 9.0mph /  14.5km/h 9.0mph /  14.5km/h 87% 0.00in /  0mm WeatherDisplay:10.37 W/m2 OVC
18:23 62.5 °F /  16.9 °C 57.9 °F /  14.4 °C 29.85in /  1010.7hPa NNE 4.6mph /  7.4km/h 4.6mph /  7.4km/h 85% 0.00in /  0mm WeatherDisplay:10.37 W/m2 OVC
18:28 62.5 °F /  16.9 °C 58.2 °F /  14.6 °C 29.86in /  1011.1hPa NNE 3.5mph /  5.6km/h 3.5mph /  5.6km/h 86% 0.00in /  0mm WeatherDisplay:10.37 W/m2 OVC
18:33 62.4 °F /  16.9 °C 57.8 °F /  14.3 °C 29.86in /  1011.1hPa NNE 8.0mph /  12.9km/h 8.0mph /  12.9km/h 85% 0.00in /  0mm WeatherDisplay:10.37 W/m2 OVC
18:38 62.2 °F /  16.8 °C 57.3 °F /  14.1 °C 29.86in /  1011.1hPa North 5.0mph /  8km/h 5.0mph /  8km/h 84% 0.00in /  0mm WeatherDisplay:10.37 W/m2 OVC
18:43 62.2 °F /  16.8 °C 57.3 °F /  14.1 °C 29.87in /  1011.4hPa North 3.5mph /  5.6km/h 3.5mph /  5.6km/h 84% 0.00in /  0mm WeatherDisplay:10.37 W/m2 OVC
18:48 62.1 °F /  16.7 °C 57.2 °F /  14 °C 29.86in /  1011.1hPa North 4.6mph /  7.4km/h 4.6mph /  7.4km/h 84% 0.00in /  0mm WeatherDisplay:10.37 W/m2 OVC
18:53 62.0 °F /  16.7 °C 57.1 °F /  13.9 °C 29.87in /  1011.4hPa North 5.0mph /  8km/h 5.0mph /  8km/h 84% 0.00in /  0mm WeatherDisplay:10.37 W/m2 OVC
18:58 61.8 °F /  16.6 °C 56.9 °F /  13.8 °C 29.87in /  1011.4hPa North 4.0mph /  6.4km/h 4.0mph /  6.4km/h 84% 0.00in /  0mm WeatherDisplay:10.37 W/m2 OVC
19:03 61.6 °F /  16.4 °C 56.7 °F /  13.7 °C 29.87in /  1011.4hPa North 3.5mph /  5.6km/h 3.5mph /  5.6km/h 84% 0.00in /  0mm WeatherDisplay:10.37 W/m2 OVC
19:08 61.5 °F /  16.4 °C 56.6 °F /  13.7 °C 29.88in /  1011.7hPa North 2.3mph /  3.7km/h 2.3mph /  3.7km/h 84% 0.00in /  0mm WeatherDisplay:10.37 W/m2 OVC
19:13 61.3 °F /  16.3 °C 56.7 °F /  13.7 °C 29.88in /  1011.7hPa NW 3.5mph /  5.6km/h 3.5mph /  5.6km/h 85% 0.00in /  0mm WeatherDisplay:10.37 W/m2 OVC
19:18 61.1 °F /  16.2 °C 56.8 °F /  13.8 °C 29.89in /  1012.1hPa West 4.0mph /  6.4km/h 4.0mph /  6.4km/h 86% 0.00in /  0mm WeatherDisplay:10.37 W/m2 OVC
19:23 60.7 °F /  15.9 °C 56.1 °F /  13.4 °C 29.89in /  1012.1hPa West 6.9mph /  11.1km/h 6.9mph /  11.1km/h 85% 0.00in /  0mm WeatherDisplay:10.37 W/m2 OVC
19:28 60.4 °F /  15.8 °C 56.5 °F /  13.6 °C 29.89in /  1012.1hPa WSW 2.3mph /  3.7km/h 2.3mph /  3.7km/h 87% 0.02in /  0.51mm WeatherDisplay:10.37 W/m2 RA
19:33 60.1 °F /  15.6 °C 56.5 °F /  13.6 °C 29.89in /  1012.1hPa NNW 2.3mph /  3.7km/h 2.3mph /  3.7km/h 88% 0.05in /  1.27mm WeatherDisplay:10.37 W/m2 RA
19:38 59.7 °F /  15.4 °C 56.4 °F /  13.6 °C 29.89in /  1012.1hPa North 4.0mph /  6.4km/h 4.0mph /  6.4km/h 89% 0.08in /  2.03mm WeatherDisplay:10.37 W/m2 RA
19:43 59.2 °F /  15.1 °C 56.5 °F /  13.6 °C 29.89in /  1012.1hPa North 2.3mph /  3.7km/h 2.3mph /  3.7km/h 91% 0.10in /  2.54mm WeatherDisplay:10.37 W/m2 RA
19:48 58.8 °F /  14.9 °C 56.1 °F /  13.4 °C 29.89in /  1012.1hPa NNE 3.0mph /  4.8km/h 3.0mph /  4.8km/h 91% 0.11in /  2.79mm WeatherDisplay:10.37 W/m2 RA
19:53 58.5 °F /  14.7 °C 56.1 °F /  13.4 °C 29.89in /  1012.1hPa NNE 2.3mph /  3.7km/h 2.3mph /  3.7km/h 92% 0.12in /  3.05mm WeatherDisplay:10.37 W/m2 RA
19:58 58.3 °F /  14.6 °C 55.9 °F /  13.3 °C 29.89in /  1012.1hPa NNE 1.2mph /  1.9km/h 1.2mph /  1.9km/h 92% 0.13in /  3.3mm WeatherDisplay:10.37 W/m2 RA
20:03 58.1 °F /  14.5 °C 56.0 °F /  13.3 °C 29.90in /  1012.4hPa Calm     93% 0.14in /  3.56mm WeatherDisplay:10.37 W/m2 RA
20:08 57.9 °F /  14.4 °C 55.8 °F /  13.2 °C 29.89in /  1012.1hPa NNE 2.3mph /  3.7km/h 2.3mph /  3.7km/h 93% 0.14in /  3.56mm WeatherDisplay:10.37 W/m2 RA
20:13 57.8 °F /  14.3 °C 55.7 °F /  13.2 °C 29.90in /  1012.4hPa Calm   0.2mph /  0.3km/h 93% 0.15in /  3.81mm WeatherDisplay:10.37 W/m2 RA
20:18 57.7 °F /  14.3 °C 55.9 °F /  13.3 °C 29.90in /  1012.4hPa NNE 1.2mph /  1.9km/h 1.2mph /  1.9km/h 94% 0.15in /  3.81mm WeatherDisplay:10.37 W/m2 RA
20:23 57.5 °F /  14.2 °C 55.7 °F /  13.2 °C 29.90in /  1012.4hPa Calm     94% 0.15in /  3.81mm WeatherDisplay:10.37 W/m2 -RA
20:28 57.4 °F /  14.1 °C 55.6 °F /  13.1 °C 29.91in /  1012.8hPa NNE 1.0mph /  1.6km/h 1.0mph /  1.6km/h 94% 0.13in /  3.3mm WeatherDisplay:10.37 W/m2 -RA
20:33 57.3 °F /  14.1 °C 55.5 °F /  13.1 °C 29.91in /  1012.8hPa NNE 1.2mph /  1.9km/h 1.2mph /  1.9km/h 94% 0.10in /  2.54mm WeatherDisplay:10.37 W/m2 -RA
20:38 57.3 °F /  14.1 °C 55.5 °F /  13.1 °C 29.91in /  1012.8hPa Calm     94% 0.07in /  1.78mm WeatherDisplay:10.37 W/m2 -RA
20:43 57.2 °F /  14 °C 55.4 °F /  13 °C 29.91in /  1012.8hPa Calm     94% 0.05in /  1.27mm WeatherDisplay:10.37 W/m2 -RA
20:48 57.0 °F /  13.9 °C 55.3 °F /  12.9 °C 29.91in /  1012.8hPa North 3.5mph /  5.6km/h 3.5mph /  5.6km/h 94% 0.05in /  1.27mm WeatherDisplay:10.37 W/m2 -RA
20:53 56.9 °F /  13.8 °C 55.2 °F /  12.9 °C 29.92in /  1013.1hPa North 1.2mph /  1.9km/h 1.2mph /  1.9km/h 94% 0.04in /  1.02mm WeatherDisplay:10.37 W/m2 -RA
20:58 56.9 °F /  13.8 °C 55.2 °F /  12.9 °C 29.92in /  1013.1hPa North 1.2mph /  1.9km/h 1.2mph /  1.9km/h 94% 0.03in /  0.76mm WeatherDisplay:10.37 W/m2 -RA
21:03 56.9 °F /  13.8 °C 55.4 °F /  13 °C 29.92in /  1013.1hPa WNW 1.2mph /  1.9km/h 1.2mph /  1.9km/h 95% 0.02in /  0.51mm WeatherDisplay:10.37 W/m2 OVC
21:08 56.8 °F /  13.8 °C 55.1 °F /  12.8 °C 29.92in /  1013.1hPa WNW 1.2mph /  1.9km/h 1.2mph /  1.9km/h 94% 0.03in /  0.76mm WeatherDisplay:10.37 W/m2 RA
21:13 56.6 °F /  13.7 °C 54.9 °F /  12.7 °C 29.92in /  1013.1hPa NW 2.3mph /  3.7km/h 2.3mph /  3.7km/h 94% 0.02in /  0.51mm WeatherDisplay:10.37 W/m2 RA
21:18 56.4 °F /  13.6 °C 54.7 °F /  12.6 °C 29.92in /  1013.1hPa NW 1.2mph /  1.9km/h 1.2mph /  1.9km/h 94% 0.03in /  0.76mm WeatherDisplay:10.37 W/m2 RA
21:23 56.2 °F /  13.4 °C 54.5 °F /  12.5 °C 29.92in /  1013.1hPa NW 2.3mph /  3.7km/h 2.3mph /  3.7km/h 94% 0.03in /  0.76mm WeatherDisplay:10.37 W/m2 -RA
21:28 56.0 °F /  13.3 °C 54.3 °F /  12.4 °C 29.93in /  1013.4hPa NW 1.2mph /  1.9km/h 1.2mph /  1.9km/h 94% 0.04in /  1.02mm WeatherDisplay:10.37 W/m2 -RA
21:33 55.9 °F /  13.3 °C 54.2 °F /  12.3 °C 29.93in /  1013.4hPa NW 1.2mph /  1.9km/h   94% 0.05in /  1.27mm WeatherDisplay:10.37 W/m2 -RA
21:38 55.7 °F /  13.2 °C 54.0 °F /  12.2 °C 29.93in /  1013.4hPa Calm     94% 0.05in /  1.27mm WeatherDisplay:10.37 W/m2 -RA
21:43 55.6 °F /  13.1 °C 53.9 °F /  12.2 °C 29.93in /  1013.4hPa NW 2.3mph /  3.7km/h 2.3mph /  3.7km/h 94% 0.06in /  1.52mm WeatherDisplay:10.37 W/m2 RA
21:48 55.6 °F /  13.1 °C 54.2 °F /  12.3 °C 29.93in /  1013.4hPa NW 2.3mph /  3.7km/h 2.3mph /  3.7km/h 95% 0.05in /  1.27mm WeatherDisplay:10.37 W/m2 RA
21:54 55.5 °F /  13.1 °C 54.1 °F /  12.3 °C 29.94in /  1013.8hPa NW 2.3mph /  3.7km/h 2.3mph /  3.7km/h 95% 0.05in /  1.27mm WeatherDisplay:10.37 W/m2 OVC
21:59 55.5 °F /  13.1 °C 54.1 °F /  12.3 °C 29.94in /  1013.8hPa NW 2.3mph /  3.7km/h 2.3mph /  3.7km/h 95% 0.06in /  1.52mm WeatherDisplay:10.37 W/m2 RA
22:04 55.4 °F /  13 °C 54.0 °F /  12.2 °C 29.94in /  1013.8hPa Calm     95% 0.06in /  1.52mm WeatherDisplay:10.37 W/m2 RA
22:09 55.3 °F /  12.9 °C 53.9 °F /  12.2 °C 29.93in /  1013.4hPa East 2.3mph /  3.7km/h 2.3mph /  3.7km/h 95% 0.06in /  1.52mm WeatherDisplay:10.37 W/m2 RA
22:14 55.3 °F /  12.9 °C 53.9 °F /  12.2 °C 29.93in /  1013.4hPa East 2.3mph /  3.7km/h 2.3mph /  3.7km/h 95% 0.07in /  1.78mm WeatherDisplay:10.37 W/m2 RA
22:19 55.3 °F /  12.9 °C 53.9 °F /  12.2 °C 29.94in /  1013.8hPa East 1.2mph /  1.9km/h 1.2mph /  1.9km/h 95% 0.06in /  1.52mm WeatherDisplay:10.37 W/m2 RA
22:24 55.4 °F /  13 °C 54.2 °F /  12.3 °C 29.94in /  1013.8hPa East 2.3mph /  3.7km/h 2.3mph /  3.7km/h 96% 0.07in /  1.78mm WeatherDisplay:10.37 W/m2 RA
22:29 55.4 °F /  13 °C 54.2 °F /  12.3 °C 29.94in /  1013.8hPa East 1.2mph /  1.9km/h 1.2mph /  1.9km/h 96% 0.07in /  1.78mm WeatherDisplay:10.37 W/m2 RA
22:34 55.4 °F /  13 °C 54.2 °F /  12.3 °C 29.94in /  1013.8hPa East 2.3mph /  3.7km/h 2.3mph /  3.7km/h 96% 0.06in /  1.52mm WeatherDisplay:10.37 W/m2 RA
22:39 55.2 °F /  12.9 °C 54.0 °F /  12.2 °C 29.95in /  1014.1hPa East 3.5mph /  5.6km/h 3.5mph /  5.6km/h 96% 0.07in /  1.78mm WeatherDisplay:10.37 W/m2 RA
22:44 55.1 °F /  12.8 °C 53.9 °F /  12.2 °C 29.95in /  1014.1hPa West 2.3mph /  3.7km/h 2.3mph /  3.7km/h 96% 0.07in /  1.78mm WeatherDisplay:10.37 W/m2 RA
22:49 55.0 °F /  12.8 °C 53.8 °F /  12.1 °C 29.95in /  1014.1hPa Calm     96% 0.08in /  2.03mm WeatherDisplay:10.37 W/m2 RA
22:54 54.9 °F /  12.7 °C 53.7 °F /  12.1 °C 29.95in /  1014.1hPa West 1.2mph /  1.9km/h 1.2mph /  1.9km/h 96% 0.09in /  2.29mm WeatherDisplay:10.37 W/m2 RA
22:59 54.9 °F /  12.7 °C 53.7 °F /  12.1 °C 29.94in /  1013.8hPa West 1.2mph /  1.9km/h 1.2mph /  1.9km/h 96% 0.09in /  2.29mm WeatherDisplay:10.37 W/m2 RA
23:04 54.8 °F /  12.7 °C 53.6 °F /  12 °C 29.93in /  1013.4hPa West 2.3mph /  3.7km/h 2.3mph /  3.7km/h 96% 0.09in /  2.29mm WeatherDisplay:10.37 W/m2 RA
23:09 54.8 °F /  12.7 °C 53.6 °F /  12 °C 29.93in /  1013.4hPa West 1.2mph /  1.9km/h 1.2mph /  1.9km/h 96% 0.09in /  2.29mm WeatherDisplay:10.37 W/m2 RA
23:14 54.8 °F /  12.7 °C 53.6 °F /  12 °C 29.93in /  1013.4hPa Calm     96% 0.09in /  2.29mm WeatherDisplay:10.37 W/m2 RA
23:19 54.8 °F /  12.7 °C 53.6 °F /  12 °C 29.93in /  1013.4hPa Calm     96% 0.09in /  2.29mm WeatherDisplay:10.37 W/m2 RA
23:24 54.9 °F /  12.7 °C 53.7 °F /  12.1 °C 29.92in /  1013.1hPa West 1.2mph /  1.9km/h   96% 0.09in /  2.29mm WeatherDisplay:10.37 W/m2 RA
23:29 54.9 °F /  12.7 °C 53.7 °F /  12.1 °C 29.92in /  1013.1hPa West 1.2mph /  1.9km/h 1.2mph /  1.9km/h 96% 0.08in /  2.03mm WeatherDisplay:10.37 W/m2 RA
23:34 55.0 °F /  12.8 °C 53.8 °F /  12.1 °C 29.91in /  1012.8hPa West 3.5mph /  5.6km/h 3.5mph /  5.6km/h 96% 0.09in /  2.29mm WeatherDisplay:10.37 W/m2 RA
23:39 55.0 °F /  12.8 °C 54.1 °F /  12.3 °C 29.91in /  1012.8hPa West 2.3mph /  3.7km/h 2.3mph /  3.7km/h 97% 0.09in /  2.29mm WeatherDisplay:10.37 W/m2 RA
23:44 55.1 °F /  12.8 °C 54.2 °F /  12.3 °C 29.90in /  1012.4hPa West 2.3mph /  3.7km/h 2.3mph /  3.7km/h 97% 0.09in /  2.29mm WeatherDisplay:10.37 W/m2 -RA
23:49 55.2 °F /  12.9 °C 54.3 °F /  12.4 °C 29.90in /  1012.4hPa East 4.6mph /  7.4km/h 4.6mph /  7.4km/h 97% 0.08in /  2.03mm WeatherDisplay:10.37 W/m2 -RA
23:54 55.4 °F /  13 °C 54.5 °F /  12.5 °C 29.90in /  1012.4hPa East 2.3mph /  3.7km/h 2.3mph /  3.7km/h 97% 0.09in /  2.29mm WeatherDisplay:10.37 W/m2 -RA
23:59 55.5 °F /  13.1 °C 54.6 °F /  12.6 °C 29.89in /  1012.1hPa East 4.0mph /  6.4km/h 4.0mph /  6.4km/h 97% 0.09in /  2.29mm WeatherDisplay:10.37 W/m2 -RA
Smyth Weather
Compliments of Weather Underground - 1.75 mb